Etusivu
METAR-TAF:

METAR-TAF

Lentoasemat :

Tukholma-Skavsta, Ruotsi

Skavstan lentoasema

Leveyspiiri: 58-47N, Pituuspiiri: 016-55E, korkeus merenpinnasta: 43 m

Tämänhetkinen sää

Tämä raportti tehtiin 39 minuuttia sitten, kello 17.20 UTC
Tuuli 7 kn idästä/koillisesta
Lämpötila -4°C
Kosteus 86%
Ilmanpaine 1026 hPa
Näkyvyys 10 km tai enemmän
Hajonneita pilviä 3200 ft:n korkeudessa
heikkoa lumisadetta

METAR: ESKN 191720Z 06007KT 9999 -SN BKN032 M04/M06 Q1026 R08/490246

Aika: 18:59 (17:59 UTC)

Sääennuste

Tämä raportti tehtiin 29 minuuttia sitten, kello 17.30 UTC
Ennuste voimassa 19. päivästä klo 18 UTC - 20. päivään klo 18 UTC
Tuuli 6 kn pohjoisesta/koillisesta
Näkyvyys: 9000 m
Hajanaisia pilviä 1000 ft:n korkeudessa
Hajonneita pilviä 2500 ft:n korkeudessa
heikkoa lumisadetta
Ajoittain
19. päivästä klo 18 UTC - 20. päivään klo 06 UTC
Hajonneita pilviä 1000 ft:n korkeudessa

TAF: ESKN 191730Z 1918/2018 03006KT 9000 -SN SCT010 BKN025 TEMPO 1918/2006 BKN010

Säähavainnot ja -ennusteet yli 4000 lentoasemalta (METAR- ja TAF-raportit).

Käytössä olevat sääasemat on merkitty karttaan keltaisilla ja punaisilla pisteillä.

Aseta hiiri pisteen päälle nähdäksesi sääaseman nimen.

Klikkaa sitten nähdäksesi säähavainnot ja -ennusteet.

Kartan vaihtaminen: klikkaa mustalla rastilla varustettuja vihreitä pisteitä, niin voit zoomata sisään; viivalla varustettua vihreää pistettä, niin voit zoomata ulos tai vihreitä nuolia, niin pääset viereisille kartoille.


METAR-TAF: